首页
METAR-TAF:

METAR-TAF

机场 :

High Level, 艾伯塔, 加拿大

纬度: 58-37N, 经度: 117-10W, 海拔: 338米

当前天气观测

该预报发布于38分钟前的01:00 UTC
风速13节,风向东南,有时为19节阵风
温度 12°C
湿度 50%
气压 1014 hPa
能見度: 24.1公里
多云层高于8000英尺
阴天层高于23000英尺

METAR: CYOJ 080100Z 14013G19KT 15SM BKN080 OVC230 12/02 A2995 RMK AC7CS1 SLP154

时间: 19:38 (01:38 UTC)

预报

该预报发布于1小时和0分钟前的00:38 UTC
预报有效从08日的 01点(UTC)到 08日的 13点(UTC)
风速18节,风向东南,有时为28节阵风
能見度: 10公里
少量云层高于5000英尺
多云层高于7000英尺
阴天层高于25000英尺
附近有阵雨
短暂存在
从 08日的 01点(UTC)到 08日的 04点(UTC)
能見度: 10公里
小阵雨
成为
从 08日的 02点(UTC)到 08日的 04点(UTC)
风速12节,风向东南,有时为22节阵风
从 08日的 0400点(UTC)
风速10节,风向南转南东
能見度: 10公里
散云层高于5000英尺
阴天层高于9000英尺
附近有阵雨
短暂存在
从 08日的 04点(UTC)到 08日的 13点(UTC)
能見度: 10公里
多云层高于5000英尺
小阵雨
成为
从 08日的 08点(UTC)到 08日的 10点(UTC)
风速5节,风向南转南东

TAF: CYOJ 080038Z 0801/0813 14018G28KT P6SM VCSH FEW050 BKN070 OVC250 TEMPO 0801/0804 P6SM -SHRA BECMG 0802/0804 14012G22KT FM080400 15010KT P6SM VCSH SCT050 OVC090 TEMPO 0804/0813 P6SM -SHRA BKN050 BECMG 0808/0810 16005KT RMK NXT FCST BY 080700Z

超过4000个机场的气象观测和天气预报(METAR&TAF报告)。

可查询的气象台以黄色和红色小点在地图上表示。

将鼠标移到小点上方,可查看气象台名称。

然后点击查看天气观测和预报。

如需切换地图:点击带黑十字的绿色按钮放大地图;点击带横线的绿色按钮缩小地图;或者点击绿色箭头查看邻近地区的地图。


METAR-TAF: